Time;durP1;ratioP1;P1;durP2;ratioP2;P2;SDS_P1;SDS_P2;PMS_P1;PMS_P2;Temp;Humidity;BMP_temperature;BMP_pressure;BME280_temperature;BME280_humidity;BME280_pressure;Samples;Min_cycle;Max_cycle;Signal;HPM_P1;HPM_P2
2022/01/28 00:00:18;;;;;;;;;120.50;111.75;;;;;5.76;48.64;99667.88;4943750;28;12465;-76
2022/01/28 00:03:09;;;;;;;;;118.50;109.00;;;;;5.72;48.89;99654.88;4967618;28;11769;-75
2022/01/28 00:05:39;;;;;;;;;114.25;107.75;;;;;5.67;49.47;99657.34;4950713;28;11634;-75
2022/01/28 00:08:07;;;;;;;;;124.75;106.00;;;;;5.64;49.28;99654.72;4944528;28;11775;-75
2022/01/28 00:10:38;;;;;;;;;101.25;86.00;;;;;5.61;49.47;99650.34;4930575;28;11795;-74
2022/01/28 00:18:53;;;;;;;;;78.50;61.25;;;;;5.49;49.76;99672.50;4884494;28;9682;-76
2022/01/28 00:38:11;;;;;;;;;100.00;87.75;;;;;5.26;51.37;99688.38;4927336;29;10259;-76
2022/01/28 00:40:40;;;;;;;;;85.75;66.50;;;;;5.20;51.71;99686.50;4927899;29;10448;-77
2022/01/28 00:43:09;;;;;;;;;87.67;68.00;;;;;5.17;51.76;99685.56;4927683;29;11172;-75
2022/01/28 00:45:37;;;;;;;;;95.33;71.33;;;;;5.07;51.98;99671.56;4928595;29;9272;-75
2022/01/28 00:48:06;;;;;;;;;92.00;69.25;;;;;5.08;51.97;99669.00;4928357;28;9376;-75
2022/01/28 00:50:37;;;;;;;;;88.00;71.50;;;;;5.09;52.13;99667.28;4928277;29;9766;-75
2022/01/28 00:53:06;;;;;;;;;93.50;72.75;;;;;5.09;52.01;99672.47;4928044;29;10969;-76
2022/01/28 00:55:34;;;;;;;;;74.67;59.33;;;;;5.12;51.74;99672.50;4947120;28;9686;-74
2022/01/28 00:58:03;;;;;;;;;81.50;65.00;;;;;5.05;51.51;99668.06;4984309;28;9382;-75
2022/01/28 01:00:32;;;;;;;;;90.00;68.33;;;;;5.06;51.70;99662.91;4990107;28;9640;-76
2022/01/28 01:03:01;;;;;;;;;86.00;69.33;;;;;5.08;51.33;99655.19;4994756;28;9456;-75
2022/01/28 01:05:33;;;;;;;;;78.67;62.00;;;;;5.15;50.73;99651.91;5026560;28;9024;-76
2022/01/28 01:08:06;;;;;;;;;65.25;55.50;;;;;5.14;50.77;99646.72;5026559;28;9113;-75
2022/01/28 01:10:35;;;;;;;;;77.00;61.75;;;;;5.14;51.25;99655.34;5010516;28;8906;-75
2022/01/28 01:13:04;;;;;;;;;73.50;59.25;;;;;5.14;50.40;99655.34;5027344;28;8860;-74
2022/01/28 01:15:37;;;;;;;;;73.50;59.50;;;;;5.13;50.32;99650.16;4979779;28;8864;-76
2022/01/28 01:18:12;;;;;;;;;64.50;49.75;;;;;5.13;50.38;99652.72;5026333;28;8934;-74
2022/01/28 01:20:58;;;;;;;;;76.75;59.50;;;;;5.13;50.59;99665.66;4985378;28;8916;-74
2022/01/28 01:23:31;;;;;;;;;75.00;61.75;;;;;5.12;50.82;99667.34;5016405;28;8877;-75
2022/01/28 01:26:07;;;;;;;;;84.67;66.33;;;;;4.86;51.60;99684.84;5026667;28;8880;-75
2022/01/28 01:28:39;;;;;;;;;89.50;66.75;;;;;4.85;51.75;99691.69;5027750;28;9023;-77
2022/01/28 01:31:12;;;;;;;;;99.00;74.50;;;;;4.68;52.42;99688.69;5027297;28;9718;-76
2022/01/28 01:33:45;;;;;;;;;98.50;77.25;;;;;4.61;52.84;99686.81;5010090;28;10392;-74
2022/01/28 01:36:14;;;;;;;;;99.25;79.50;;;;;4.59;52.73;99688.44;5009801;28;10167;-76
2022/01/28 01:38:44;;;;;;;;;88.50;71.25;;;;;4.59;52.89;99685.84;5026438;28;10201;-77
2022/01/28 01:41:20;;;;;;;;;91.50;72.75;;;;;4.61;53.13;99683.31;5026306;28;10058;-75
2022/01/28 01:43:59;;;;;;;;;94.00;73.25;;;;;4.59;52.65;99691.03;5025934;28;9995;-77
2022/01/28 01:46:39;;;;;;;;;96.25;73.00;;;;;4.63;52.72;99686.81;5026190;28;9738;-75
2022/01/28 01:52:03;;;;;;;;;93.25;74.25;;;;;4.66;52.77;99684.31;4950313;28;9928;-75
2022/01/28 01:54:37;;;;;;;;;93.50;73.00;;;;;4.71;52.90;99689.59;4946993;29;9806;-76
2022/01/28 01:57:07;;;;;;;;;95.50;74.00;;;;;4.69;52.43;99689.59;4934248;28;9766;-76
2022/01/28 01:59:37;;;;;;;;;101.25;83.75;;;;;4.71;52.48;99685.31;4966137;28;9841;-76
2022/01/28 02:02:07;;;;;;;;;99.75;77.75;;;;;4.74;52.92;99675.03;4950242;28;10441;-76
2022/01/28 02:04:37;;;;;;;;;96.50;77.00;;;;;4.78;52.60;99668.25;4962345;28;10196;-76
2022/01/28 02:07:06;;;;;;;;;97.75;76.00;;;;;4.81;53.26;99666.63;4933989;28;10115;-77
2022/01/28 02:09:36;;;;;;;;;92.50;71.50;;;;;4.82;52.50;99670.06;4949845;28;9892;-75
2022/01/28 02:12:06;;;;;;;;;87.33;69.00;;;;;4.83;52.23;99674.41;4918893;28;9620;-75
2022/01/28 02:14:35;;;;;;;;;77.33;62.33;;;;;4.74;52.57;99682.78;4887970;28;9466;-76
2022/01/28 02:17:05;;;;;;;;;80.33;65.00;;;;;4.73;52.33;99682.78;4965859;28;9017;-76
2022/01/28 02:19:34;;;;;;;;;86.33;65.67;;;;;4.65;52.56;99683.47;4936011;28;9069;-76
2022/01/28 02:22:05;;;;;;;;;83.67;65.33;;;;;4.35;53.68;99680.94;4983952;28;9242;-75
2022/01/28 02:24:40;;;;;;;;;83.33;67.00;;;;;4.55;53.26;99671.13;4965884;28;9348;-75
2022/01/28 02:27:11;;;;;;;;;78.50;63.00;;;;;4.54;53.45;99677.16;4948318;28;9207;-76
2022/01/28 02:29:41;;;;;;;;;85.33;64.67;;;;;4.38;54.36;99681.00;5005172;28;8961;-75
2022/01/28 02:32:10;;;;;;;;;89.00;67.33;;;;;4.59;53.56;99679.81;5009517;28;9290;-76
2022/01/28 02:34:40;;;;;;;;;87.00;67.33;;;;;4.73;53.32;99675.03;5030332;28;10444;-75
2022/01/28 02:37:10;;;;;;;;;79.33;64.67;;;;;4.77;53.22;99659.63;5030666;28;9107;-75
2022/01/28 02:39:39;;;;;;;;;88.67;69.67;;;;;4.84;53.28;99660.69;4976012;28;9051;-75
2022/01/28 02:42:17;;;;;;;;;72.75;61.50;;;;;4.92;53.30;99664.31;5028152;28;9264;-75
2022/01/28 02:44:49;;;;;;;;;70.25;59.50;;;;;4.94;52.59;99652.28;5029795;28;8828;-75
2022/01/28 02:47:29;;;;;;;;;76.75;61.25;;;;;4.98;52.90;99656.69;5028291;28;9680;-76
2022/01/28 02:49:59;;;;;;;;;75.67;62.67;;;;;5.07;52.23;99646.56;5012910;28;8852;-76
2022/01/28 02:52:36;;;;;;;;;85.33;65.00;;;;;5.18;52.19;99656.28;5028026;28;8974;-75
2022/01/28 02:55:10;;;;;;;;;79.67;65.67;;;;;5.23;52.24;99649.50;4997895;28;9217;-75
2022/01/28 02:57:44;;;;;;;;;86.67;67.33;;;;;5.25;51.47;99656.47;5027633;28;9026;-75
2022/01/28 03:00:14;;;;;;;;;89.00;71.00;;;;;5.30;51.60;99659.16;5029379;28;9294;-75
2022/01/28 03:02:42;;;;;;;;;89.67;70.00;;;;;5.37;51.67;99680.81;5030036;28;9416;-75
2022/01/28 03:05:33;;;;;;;;;99.00;75.00;;;;;5.38;51.64;99685.19;4995667;28;9286;-75
2022/01/28 03:08:04;;;;;;;;;95.75;76.25;;;;;5.36;51.86;99692.91;5028905;28;10078;-74
2022/01/28 03:10:45;;;;;;;;;89.75;70.25;;;;;5.37;51.62;99694.66;5029087;28;9823;-75
2022/01/28 03:13:30;;;;;;;;;87.50;67.50;;;;;5.35;51.65;99698.91;5030486;28;9736;-75
2022/01/28 03:16:12;;;;;;;;;97.75;76.75;;;;;5.35;51.82;99711.84;5028269;28;9732;-74
2022/01/28 03:21:39;;;;;;;;;94.00;72.25;;;;;5.28;52.13;99718.56;5029389;28;9849;-76
2022/01/28 03:24:10;;;;;;;;;93.25;72.50;;;;;5.30;52.19;99716.03;5028262;28;9907;-75
2022/01/28 03:26:39;;;;;;;;;91.75;70.25;;;;;5.31;51.68;99714.31;5028378;28;9862;-76
2022/01/28 03:29:08;;;;;;;;;98.00;77.00;;;;;5.30;51.83;99707.41;5012035;28;9883;-76
2022/01/28 03:31:38;;;;;;;;;88.75;70.50;;;;;5.30;51.50;99717.75;4978064;28;9608;-76
2022/01/28 03:34:07;;;;;;;;;84.67;66.33;;;;;5.27;51.33;99710.78;5044765;28;9586;-75
2022/01/28 03:36:36;;;;;;;;;88.67;67.67;;;;;5.29;51.54;99722.03;5026835;28;9274;-75
2022/01/28 03:39:07;;;;;;;;;76.33;62.33;;;;;5.29;51.37;99724.63;5029546;28;9298;-74
2022/01/28 03:41:38;;;;;;;;;82.00;67.00;;;;;5.33;51.58;99723.88;5027984;28;9102;-75
2022/01/28 03:44:07;;;;;;;;;83.67;65.33;;;;;5.32;51.39;99724.69;5027121;28;9305;-76
2022/01/28 03:46:36;;;;;;;;;84.00;67.33;;;;;5.33;51.48;99729.03;5025739;28;9739;-75
2022/01/28 03:49:05;;;;;;;;;83.33;63.67;;;;;5.36;50.96;99712.72;5011645;28;8974;-75
2022/01/28 03:51:33;;;;;;;;;74.50;60.75;;;;;5.37;50.74;99705.00;5027721;28;8962;-75
2022/01/28 03:54:02;;;;;;;;;73.75;61.00;;;;;5.33;51.17;99710.94;5044357;28;8875;-76
2022/01/28 03:56:31;;;;;;;;;81.50;64.25;;;;;5.36;50.51;99707.53;5010608;28;8888;-75
2022/01/28 03:59:01;;;;;;;;;75.75;62.75;;;;;5.40;50.64;99707.63;5010637;28;8856;-76
2022/01/28 04:01:34;;;;;;;;;77.00;61.25;;;;;5.42;50.54;99703.38;5029070;28;8972;-76
2022/01/28 04:12:32;;;;;;;;;70.75;56.00;;;;;5.46;51.25;99714.66;4967123;28;8913;-75
2022/01/28 04:15:18;;;;;;;;;82.00;64.00;;;;;5.47;51.34;99717.28;4951188;28;8875;-75
2022/01/28 04:17:46;;;;;;;;;79.25;62.50;;;;;5.46;51.32;99714.66;4967481;28;9767;-74
2022/01/28 04:20:15;;;;;;;;;78.25;60.75;;;;;5.39;51.41;99721.41;4966503;28;8839;-76
2022/01/28 04:22:44;;;;;;;;;79.75;64.25;;;;;5.40;51.34;99720.56;4935059;28;8863;-77
2022/01/28 04:25:13;;;;;;;;;86.33;67.33;;;;;5.37;51.24;99715.34;4935192;28;8903;-76
2022/01/28 04:27:42;;;;;;;;;78.33;61.67;;;;;5.41;51.43;99718.88;4951664;28;9269;-76
2022/01/28 04:30:12;;;;;;;;;79.25;61.75;;;;;5.42;51.85;99728.38;4934946;28;9045;-75
2022/01/28 04:32:41;;;;;;;;;71.67;57.33;;;;;5.43;51.27;99727.53;4967263;28;9064;-76
2022/01/28 04:35:11;;;;;;;;;82.67;64.67;;;;;5.43;51.23;99736.16;4949481;28;8938;-74
2022/01/28 04:37:47;;;;;;;;;76.00;61.33;;;;;5.46;51.47;99737.94;4918208;28;9042;-74
2022/01/28 04:40:17;;;;;;;;;82.50;64.00;;;;;5.49;51.62;99739.75;4949599;28;9733;-75
2022/01/28 04:43:05;;;;;;;;;76.00;62.50;;;;;5.50;51.71;99750.13;4974571;28;8863;-76
2022/01/28 04:45:42;;;;;;;;;76.50;60.75;;;;;5.55;51.86;99745.91;5023649;28;8848;-75
2022/01/28 04:48:20;;;;;;;;;79.50;63.00;;;;;5.56;51.76;99746.81;5025654;28;9345;-73
2022/01/28 04:51:04;;;;;;;;;76.75;59.75;;;;;5.59;51.79;99752.91;5025337;28;8855;-76
2022/01/28 04:53:44;;;;;;;;;77.50;63.50;;;;;5.63;51.80;99754.75;5041865;28;8868;-75
2022/01/28 04:56:42;;;;;;;;;82.50;64.00;;;;;5.67;51.72;99745.31;5025584;28;8844;-75
2022/01/28 05:02:18;;;;;;;;;83.75;64.75;;;;;5.79;51.58;99758.53;5007478;28;8876;-74
2022/01/28 05:05:06;;;;;;;;;76.75;59.75;;;;;5.81;51.33;99759.44;5023802;28;8922;-75
2022/01/28 05:08:02;;;;;;;;;70.75;58.00;;;;;5.86;51.11;99762.13;5007055;28;8860;-75
2022/01/28 05:10:53;;;;;;;;;73.25;60.25;;;;;5.90;50.96;99773.41;5023844;28;9633;-76
2022/01/28 05:25:02;;;;;;;;;75.50;59.50;;;;;5.90;50.91;99817.41;4987755;28;9043;-75
2022/01/28 05:27:39;;;;;;;;;78.67;63.00;;;;;5.89;50.91;99839.81;5003563;28;8889;-75
2022/01/28 05:30:09;;;;;;;;;84.67;67.33;;;;;5.81;51.25;99841.38;5001979;28;8991;-77
2022/01/28 05:32:37;;;;;;;;;74.75;58.75;;;;;5.79;51.15;99845.66;4945661;28;9126;-76
2022/01/28 05:35:08;;;;;;;;;75.50;60.00;;;;;5.42;51.89;99843.00;5023794;28;9944;-76
2022/01/28 05:37:37;;;;;;;;;70.25;54.50;;;;;5.31;52.17;99847.03;5023405;28;8868;-75
2022/01/28 05:40:07;;;;;;;;;72.00;57.00;;;;;5.37;52.40;99856.66;5023747;28;8872;-76
2022/01/28 05:42:35;;;;;;;;;68.75;54.75;;;;;5.20;52.79;99866.59;4983844;28;8898;-76
2022/01/28 05:45:05;;;;;;;;;59.50;48.50;;;;;5.16;52.86;99881.16;4965313;28;8854;-76
2022/01/28 05:47:36;;;;;;;;;70.00;56.00;;;;;5.25;52.84;99873.66;4967996;28;8893;-76
2022/01/28 05:50:05;;;;;;;;;69.00;58.00;;;;;5.04;53.58;99873.06;4967925;28;8972;-76
2022/01/28 05:52:36;;;;;;;;;72.75;60.50;;;;;5.17;53.43;99869.97;4968102;28;8878;-76
2022/01/28 05:55:05;;;;;;;;;72.50;60.00;;;;;5.28;52.86;99863.38;4983820;28;8870;-76
2022/01/28 05:57:34;;;;;;;;;11.50;3.50;;;;;5.33;53.04;99863.50;4954755;28;8874;-76
2022/01/28 06:00:03;;;;;;;;;82.75;63.00;;;;;5.35;52.82;99867.00;5003923;28;8870;-76
2022/01/28 06:02:32;;;;;;;;;77.75;64.25;;;;;5.40;52.60;99869.69;4970805;28;8869;-76
2022/01/28 06:05:01;;;;;;;;;76.33;63.00;;;;;5.39;52.40;99878.31;4954614;28;8851;-77
2022/01/28 06:07:30;;;;;;;;;86.75;64.50;;;;;5.42;52.40;99880.94;4970560;28;9031;-75
2022/01/28 06:10:03;;;;;;;;;82.67;65.00;;;;;5.44;52.42;99885.34;4944361;28;8886;-76
2022/01/28 06:12:32;;;;;;;;;86.00;69.33;;;;;5.51;52.27;99888.94;4959263;28;9013;-76
2022/01/28 06:15:00;;;;;;;;;85.67;65.00;;;;;5.39;52.83;99899.00;5027707;28;9821;-76
2022/01/28 06:17:30;;;;;;;;;76.67;62.00;;;;;5.45;52.50;99904.31;5046441;28;9260;-76
2022/01/28 06:19:58;;;;;;;;;82.67;64.00;;;;;5.54;52.42;99903.66;5046325;28;9297;-75
2022/01/28 06:22:27;;;;;;;;;85.33;69.33;;;;;5.54;52.25;99912.31;5013596;28;9195;-76
2022/01/28 06:24:56;;;;;;;;;86.33;68.00;;;;;5.58;52.16;99914.13;4989668;28;9212;-75
2022/01/28 06:27:26;;;;;;;;;90.33;66.00;;;;;5.62;52.48;99921.13;4987868;28;9347;-76
2022/01/28 06:29:54;;;;;;;;;88.33;70.67;;;;;5.53;52.80;99925.19;4990376;28;9086;-76
2022/01/28 06:32:23;;;;;;;;;82.67;66.67;;;;;5.63;52.46;99924.59;4989946;28;9433;-76
2022/01/28 06:34:52;;;;;;;;;85.67;67.67;;;;;5.60;52.46;99914.19;5007370;28;9503;-76
2022/01/28 06:37:21;;;;;;;;;90.33;70.33;;;;;5.66;52.44;99909.16;5007377;28;9285;-76
2022/01/28 06:39:49;;;;;;;;;95.00;70.75;;;;;5.69;52.90;99916.09;4991635;28;9430;-76
2022/01/28 06:42:18;;;;;;;;;90.00;70.00;;;;;5.70;52.66;99928.22;4991568;28;9673;-76
2022/01/28 06:44:48;;;;;;;;;88.67;71.33;;;;;5.71;52.66;99928.25;5005511;28;9270;-76
2022/01/28 06:47:17;;;;;;;;;94.50;73.50;;;;;5.63;52.53;99932.34;4971750;28;10372;-77
2022/01/28 06:49:45;;;;;;;;;92.25;72.50;;;;;5.65;52.82;99933.25;4987611;28;9620;-75
2022/01/28 06:52:14;;;;;;;;;97.25;73.00;;;;;5.62;53.07;99931.47;4955726;28;9740;-75
2022/01/28 06:54:42;;;;;;;;;95.50;75.50;;;;;5.48;53.04;99940.56;4939711;28;9663;-75
2022/01/28 06:57:11;;;;;;;;;92.00;72.25;;;;;5.28;54.48;99943.50;4987921;28;9743;-75
2022/01/28 06:59:40;;;;;;;;;89.25;68.75;;;;;5.35;54.50;99952.34;4987784;28;10396;-76
2022/01/28 07:02:09;;;;;;;;;46.25;35.75;;;;;5.42;54.01;99949.03;4993750;28;9719;-76
2022/01/28 07:04:39;;;;;;;;;87.50;66.75;;;;;5.52;53.58;99950.19;4990710;28;9568;-76
2022/01/28 07:07:07;;;;;;;;;88.67;69.67;;;;;5.61;53.75;99950.44;4990638;28;10240;-75
2022/01/28 07:09:36;;;;;;;;;93.00;71.33;;;;;5.68;53.70;99945.41;4971700;28;9507;-76
2022/01/28 07:12:06;;;;;;;;;91.67;70.33;;;;;5.73;53.34;99942.09;4986731;28;9329;-77
2022/01/28 07:14:34;;;;;;;;;87.67;68.67;;;;;5.80;53.61;99937.94;4947385;28;9632;-75
2022/01/28 07:17:03;;;;;;;;;86.00;65.67;;;;;5.88;53.26;99945.91;4948171;28;9503;-76
2022/01/28 07:19:33;;;;;;;;;96.00;73.25;;;;;5.93;53.37;99949.47;4931445;28;9557;-76
2022/01/28 07:22:02;;;;;;;;;94.75;70.00;;;;;5.81;53.22;99942.31;4900352;28;9613;-75
2022/01/28 07:24:31;;;;;;;;;96.50;72.75;;;;;5.88;53.47;99948.47;4943841;28;9525;-76
2022/01/28 07:27:00;;;;;;;;;91.33;71.00;;;;;5.93;53.33;99950.34;4970324;28;9664;-77
2022/01/28 07:29:31;;;;;;;;;90.25;69.75;;;;;5.95;52.89;99960.75;4971177;28;9451;-75
2022/01/28 07:32:00;;;;;;;;;85.33;64.67;;;;;5.98;53.22;99953.09;4954769;28;9727;-76
2022/01/28 07:34:29;;;;;;;;;96.25;72.75;;;;;6.04;53.27;99956.69;4954621;28;9441;-76
2022/01/28 07:37:00;;;;;;;;;92.75;72.00;;;;;6.07;53.44;99942.97;4984848;28;9648;-76
2022/01/28 07:39:30;;;;;;;;;97.75;77.50;;;;;6.13;53.17;99955.19;4966665;28;9840;-77
2022/01/28 07:41:59;;;;;;;;;93.50;72.25;;;;;6.19;52.71;99968.28;4968389;28;10028;-75
2022/01/28 07:44:29;;;;;;;;;98.50;78.75;;;;;6.24;52.87;99958.91;4989846;28;9559;-76
2022/01/28 07:46:58;;;;;;;;;94.00;72.25;;;;;6.28;52.90;99972.81;5043777;28;9724;-75
2022/01/28 07:49:26;;;;;;;;;95.75;76.75;;;;;6.36;52.99;99979.91;5034455;28;9991;-75
2022/01/28 07:51:55;;;;;;;;;101.25;80.50;;;;;6.36;52.84;99982.50;5030011;28;9929;-76
2022/01/28 07:54:25;;;;;;;;;99.50;77.75;;;;;6.41;52.74;99987.81;5026286;28;10158;-76
2022/01/28 07:56:54;;;;;;;;;100.00;83.50;;;;;6.41;52.90;99986.06;5011011;28;10180;-76
2022/01/28 07:59:23;;;;;;;;;99.50;81.50;;;;;6.49;52.64;99985.38;5027338;28;10190;-76
2022/01/28 08:01:52;;;;;;;;;83.50;63.50;;;;;6.48;52.66;99979.31;5027202;28;10116;-74
2022/01/28 08:04:21;;;;;;;;;98.00;78.75;;;;;6.35;52.88;99982.44;5009764;28;10018;-76
2022/01/28 08:06:50;;;;;;;;;94.75;72.50;;;;;6.40;53.01;99984.31;5023927;28;10054;-75
2022/01/28 08:09:18;;;;;;;;;100.00;79.25;;;;;6.36;53.18;99981.63;5043556;28;10005;-77
2022/01/28 08:11:48;;;;;;;;;97.50;78.25;;;;;6.25;53.50;99996.91;5043055;28;10826;-76
2022/01/28 08:14:17;;;;;;;;;91.50;71.75;;;;;6.32;53.25;99996.22;5028632;28;10002;-76
2022/01/28 08:16:45;;;;;;;;;93.25;72.00;;;;;6.36;52.99;99994.56;5045545;28;10020;-77
2022/01/28 08:19:14;;;;;;;;;95.00;75.50;;;;;6.32;53.10;99988.44;5025762;28;9702;-76
2022/01/28 08:21:43;;;;;;;;;87.25;67.00;;;;;6.36;53.06;100002.34;5044620;28;9791;-76
2022/01/28 08:24:11;;;;;;;;;80.25;63.50;;;;;6.42;52.92;100007.66;5028981;28;9778;-75
2022/01/28 08:26:40;;;;;;;;;94.00;72.25;;;;;6.49;52.43;100019.94;5012009;28;10344;-76
2022/01/28 08:29:10;;;;;;;;;90.50;71.50;;;;;6.53;52.41;100008.78;5028328;28;10388;-77
2022/01/28 08:31:39;;;;;;;;;84.25;66.75;;;;;6.53;52.24;100007.94;5044847;28;10317;-77
2022/01/28 08:34:08;;;;;;;;;90.67;70.33;;;;;6.60;52.24;100002.91;5028623;28;9571;-76
2022/01/28 08:36:36;;;;;;;;;77.67;60.33;;;;;6.65;51.94;100003.00;5044942;28;9425;-76
2022/01/28 08:39:06;;;;;;;;;84.67;67.67;;;;;6.76;51.99;99998.06;5041365;28;9282;-76
2022/01/28 08:41:38;;;;;;;;;87.00;68.50;;;;;6.79;51.45;99999.03;5038482;28;9456;-76
2022/01/28 08:44:07;;;;;;;;;82.33;67.00;;;;;6.82;51.81;99993.91;5043732;28;9712;-74
2022/01/28 08:46:38;;;;;;;;;94.33;69.00;;;;;6.73;51.86;100006.66;5044241;28;9415;-75
2022/01/28 08:49:06;;;;;;;;;87.67;66.67;;;;;6.88;51.50;100013.00;5025966;28;9374;-76
2022/01/28 08:51:38;;;;;;;;;86.00;65.00;;;;;7.03;51.34;100014.25;5044269;28;9255;-76
2022/01/28 08:54:06;;;;;;;;;85.33;62.67;;;;;7.03;50.27;100011.66;5044652;28;9119;-76
2022/01/28 08:56:35;;;;;;;;;85.00;65.67;;;;;7.02;51.15;100021.97;5028546;28;9112;-73
2022/01/28 08:59:46;;;;;;;;;77.67;63.00;;;;;6.88;50.98;100036.34;5024639;28;9419;-74
2022/01/28 09:02:16;;;;;;;;;88.00;66.33;;;;;6.92;51.23;100038.16;5044834;28;9846;-74
2022/01/28 09:04:45;;;;;;;;;81.00;63.00;;;;;6.28;52.80;100040.16;5027781;28;9020;-75
2022/01/28 09:07:14;;;;;;;;;81.00;59.75;;;;;6.47;52.26;100041.47;5027894;28;9085;-74
2022/01/28 09:09:51;;;;;;;;;77.00;61.75;;;;;6.29;53.05;100049.66;5044178;28;9032;-76
2022/01/28 09:12:33;;;;;;;;;72.33;60.00;;;;;6.31;52.35;100055.75;5044298;28;8870;-75
2022/01/28 09:15:01;;;;;;;;;77.00;62.00;;;;;6.47;52.86;100060.47;5043776;28;9132;-75
2022/01/28 09:17:52;;;;;;;;;89.67;68.33;;;;;6.34;52.46;100071.38;5026425;28;8929;-74
2022/01/28 09:20:24;;;;;;;;;85.67;68.00;;;;;6.41;52.78;100071.56;5011013;28;9964;-78
2022/01/28 09:22:53;;;;;;;;;82.67;65.00;;;;;6.10;53.58;100077.66;5035736;28;9136;-75
2022/01/28 09:25:22;;;;;;;;;82.33;63.00;;;;;6.09;54.10;100069.84;5027713;28;8951;-74
2022/01/28 09:27:51;;;;;;;;;84.00;64.00;;;;;6.17;53.89;100070.94;5023205;28;9109;-77
2022/01/28 09:30:20;;;;;;;;;82.33;63.67;;;;;6.39;53.59;100056.78;5005393;28;8927;-76
2022/01/28 09:32:48;;;;;;;;;82.33;62.33;;;;;6.49;52.95;100056.19;5026490;28;9079;-74
2022/01/28 09:35:18;;;;;;;;;85.00;65.33;;;;;6.64;52.53;100060.88;5026717;28;9116;-77
2022/01/28 09:37:47;;;;;;;;;85.33;66.33;;;;;6.61;52.76;100064.25;5025697;28;9806;-76
2022/01/28 09:40:16;;;;;;;;;81.33;65.67;;;;;6.84;52.21;100053.53;4989577;28;9290;-76
2022/01/28 09:42:47;;;;;;;;;81.00;63.50;;;;;6.89;51.80;100058.84;5007577;28;9137;-74
2022/01/28 09:45:17;;;;;;;;;83.00;65.67;;;;;6.77;51.77;100068.09;5031514;28;8851;-75
2022/01/28 09:47:46;;;;;;;;;83.33;66.00;;;;;6.75;52.42;100067.19;5031081;28;9129;-74
2022/01/28 09:50:16;;;;;;;;;80.00;61.67;;;;;6.78;52.51;100056.88;5028757;28;9189;-75
2022/01/28 09:52:46;;;;;;;;;80.75;63.00;;;;;6.96;52.32;100068.53;5029498;28;9719;-74
2022/01/28 09:55:14;;;;;;;;;73.00;56.75;;;;;7.05;51.88;100062.66;5012770;28;8879;-76
2022/01/28 09:57:43;;;;;;;;;79.33;63.00;;;;;6.94;51.94;100063.31;5026952;28;8889;-73
2022/01/28 10:00:13;;;;;;;;;80.33;63.00;;;;;7.12;51.98;100060.22;5016890;28;9108;-73
2022/01/28 10:02:49;;;;;;;;;80.50;61.00;;;;;7.23;51.82;100057.88;4956622;28;9046;-74
2022/01/28 10:05:21;;;;;;;;;75.00;59.33;;;;;7.30;51.48;100059.75;4973738;28;8987;-74
2022/01/28 10:08:05;;;;;;;;;73.75;58.00;;;;;7.44;50.83;100057.44;4988886;28;9007;-75
2022/01/28 10:10:58;;;;;;;;;73.75;58.00;;;;;7.53;51.15;100057.63;4971451;28;8966;-79
2022/01/28 10:13:33;;;;;;;;;74.00;58.25;;;;;7.59;50.63;100055.13;4896569;29;9041;-76
2022/01/28 10:16:09;;;;;;;;;72.25;57.50;;;;;7.50;50.59;100048.91;4880314;29;9725;-76
2022/01/28 10:18:47;;;;;;;;;76.25;60.75;;;;;7.51;50.25;100054.13;4911578;29;8925;-75
2022/01/28 10:21:25;;;;;;;;;81.25;61.25;;;;;7.56;50.99;100056.78;4881648;29;8855;-76
2022/01/28 10:24:07;;;;;;;;;75.25;56.75;;;;;7.74;49.98;100043.31;4895402;29;8875;-75
2022/01/28 10:26:39;;;;;;;;;81.00;62.33;;;;;7.79;49.73;100042.56;4899954;29;8907;-77
2022/01/28 10:29:11;;;;;;;;;73.50;54.00;;;;;7.40;50.90;100042.66;4911374;29;8977;-78
2022/01/28 10:31:43;;;;;;;;;76.00;58.75;;;;;7.40;51.50;100042.66;4874339;28;9051;-76
2022/01/28 10:34:14;;;;;;;;;74.50;61.00;;;;;7.50;50.74;100041.97;4953161;28;8875;-75
2022/01/28 10:36:44;;;;;;;;;74.00;58.75;;;;;7.15;51.49;100038.69;4933906;28;8883;-75
2022/01/28 10:39:16;;;;;;;;;74.75;60.50;;;;;7.19;51.85;100058.66;4947648;28;8927;-74
2022/01/28 10:41:50;;;;;;;;;78.75;60.00;;;;;7.17;52.17;100043.03;4949184;28;8870;-74
2022/01/28 10:44:18;;;;;;;;;68.75;54.75;;;;;7.33;51.39;100033.84;4901687;28;9012;-75
2022/01/28 10:46:56;;;;;;;;;72.50;56.75;;;;;6.98;52.62;100030.53;4932743;28;8890;-75
2022/01/28 10:49:32;;;;;;;;;74.00;58.75;;;;;6.94;52.57;100032.19;4935357;28;8882;-76
2022/01/28 10:52:12;;;;;;;;;69.50;56.50;;;;;6.88;53.23;100050.22;4990572;28;9714;-77
2022/01/28 10:54:42;;;;;;;;;76.50;60.25;;;;;6.95;52.98;100048.59;4991117;28;9043;-74
2022/01/28 10:57:11;;;;;;;;;75.25;60.00;;;;;7.18;52.21;100054.28;5001653;28;8846;-74
2022/01/28 10:59:41;;;;;;;;;75.50;59.00;;;;;7.17;52.68;100042.19;4942728;28;8997;-74
2022/01/28 11:02:09;;;;;;;;;81.00;62.00;;;;;7.22;52.85;100049.22;4990608;28;8866;-73
2022/01/28 11:04:40;;;;;;;;;76.50;61.00;;;;;7.14;52.68;100044.69;5006841;28;8867;-72
2022/01/28 11:07:11;;;;;;;;;75.25;58.25;;;;;7.21;52.86;100044.00;4990450;28;8963;-74
2022/01/28 11:09:42;;;;;;;;;71.50;57.25;;;;;7.30;52.10;100038.13;4974688;28;8866;-75
2022/01/28 11:12:11;;;;;;;;;72.25;57.50;;;;;7.39;52.94;100040.88;5007976;28;8850;-75
2022/01/28 11:14:40;;;;;;;;;74.50;58.50;;;;;7.55;52.26;100039.50;5025296;28;8855;-75
2022/01/28 11:17:11;;;;;;;;;75.50;58.00;;;;;7.45;52.13;100035.84;5046516;28;8858;-73
2022/01/28 11:19:40;;;;;;;;;70.50;57.75;;;;;7.41;52.51;100040.09;5029578;28;8869;-76
2022/01/28 11:22:29;;;;;;;;;79.50;60.00;;;;;7.41;52.36;100041.81;5045487;28;8970;-78
2022/01/28 11:25:25;;;;;;;;;73.50;58.00;;;;;7.49;51.57;100041.97;5028432;28;8924;-74
2022/01/28 11:27:54;;;;;;;;;73.25;58.25;;;;;7.65;51.28;100028.44;5046157;28;8978;-72
2022/01/28 11:30:26;;;;;;;;;76.50;57.50;;;;;7.83;51.60;100027.03;5044553;28;9718;-75
2022/01/28 11:33:00;;;;;;;;;71.00;57.25;;;;;7.59;52.41;100020.53;5042984;28;8912;-74
2022/01/28 11:35:32;;;;;;;;;66.25;53.25;;;;;7.69;51.82;100027.63;5022091;28;8820;-72
2022/01/28 11:38:05;;;;;;;;;70.00;55.25;;;;;7.77;51.15;100030.41;4989585;28;8986;-74
2022/01/28 11:40:50;;;;;;;;;71.75;55.00;;;;;7.31;52.41;100030.34;4973568;28;8882;-74
2022/01/28 11:43:21;;;;;;;;;64.50;53.00;;;;;7.54;52.34;100029.94;4989872;28;9023;-77
2022/01/28 11:46:06;;;;;;;;;67.50;54.25;;;;;7.37;52.70;100024.41;4989936;28;9075;-74
2022/01/28 11:49:16;;;;;;;;;64.00;52.00;;;;;7.40;52.16;100020.16;5007328;28;8888;-74
2022/01/28 11:51:46;;;;;;;;;64.50;53.75;;;;;7.69;52.25;100021.56;4931779;28;8927;-73
2022/01/28 11:54:16;;;;;;;;;69.50;51.50;;;;;7.65;52.12;100022.38;4932861;28;8904;-74
2022/01/28 11:57:14;;;;;;;;;64.25;50.75;;;;;7.33;52.93;100014.81;4935207;28;8870;-74
2022/01/28 11:59:44;;;;;;;;;66.75;52.75;;;;;7.41;52.52;100008.09;4965020;28;8953;-73
2022/01/28 12:02:23;;;;;;;;;66.75;49.75;;;;;7.34;52.17;100016.59;4963409;28;8968;-73
2022/01/28 12:04:53;;;;;;;;;59.50;46.50;;;;;7.71;51.99;99999.13;4963818;28;9019;-74
2022/01/28 12:07:24;;;;;;;;;60.25;47.50;;;;;7.95;51.38;100011.66;4950567;28;9029;-73
2022/01/28 12:09:54;;;;;;;;;43.75;39.00;;;;;7.79;52.08;100007.94;4935187;28;8910;-74
2022/01/28 12:13:00;;;;;;;;;52.00;41.25;;;;;7.86;52.06;99998.53;4970217;28;8915;-74
2022/01/28 12:15:31;;;;;;;;;52.00;43.00;;;;;7.62;52.00;99994.66;4985187;28;8861;-73
2022/01/28 12:18:09;;;;;;;;;59.00;48.75;;;;;7.46;51.74;100000.38;4951480;28;8861;-74
2022/01/28 12:20:43;;;;;;;;;57.25;44.75;;;;;7.12;53.08;100004.88;4967318;28;8872;-73
2022/01/28 12:23:36;;;;;;;;;53.75;44.25;;;;;6.82;54.08;99999.09;4952623;28;8860;-75
2022/01/28 12:26:05;;;;;;;;;48.25;43.00;;;;;6.85;54.23;100019.03;4984743;28;8848;-74
2022/01/28 12:28:48;;;;;;;;;48.25;42.00;;;;;7.02;53.34;99991.72;5003248;28;8844;-75
2022/01/28 12:31:23;;;;;;;;;50.00;44.00;;;;;7.01;54.06;100005.56;5023896;28;8859;-75
2022/01/28 12:33:54;;;;;;;;;62.00;47.00;;;;;6.75;54.42;100004.13;5025127;28;8905;-74
2022/01/28 12:36:25;;;;;;;;;51.75;41.00;;;;;6.68;54.83;99997.91;5046230;28;8840;-74
2022/01/28 12:39:07;;;;;;;;;55.75;43.75;;;;;6.76;55.20;99995.47;5046636;28;8887;-72
2022/01/28 12:41:49;;;;;;;;;48.50;44.25;;;;;6.77;54.63;99994.66;5061045;28;8859;-75
2022/01/28 12:44:21;;;;;;;;;54.50;43.50;;;;;6.79;54.62;99980.88;5045117;28;9070;-75